EDDGEDLW

Guest
Details From EDDG - Muenster Osnabrueck
To EDLW - Dortmund-Wickede
Flight Number -
Tags generated
Created
Modified
Stats Distance 37 nm / 69 km
Max Altitude 2,400 ft / 732 m
Waypoints 3
Social Downloads 2
Likes 0
Share VATSIM

Download

Looking for another format? Having issues loading an existing format? Contact us
Advertisement - Login to hide

Notes

Basic altitude profile: - Ascent Rate: 2500ft/min - Ascent Speed: 250kts - Cruise Altitude: 35000ft - Cruise Speed: 420kts - Descent Rate: 1500ft/min - Descent Speed: 250kts Options: - Use NATs: yes - Use PACOTS: yes - Use low airways: yes - Use high airways: yes

Route

EDDG DOM EDLW

ID Type Via Altitude Latitude Longitude Leg Dist Tot Dist Heading (true) Name
O EDDG APT - 0 ft / 0 m 52.13458˚ 7.68467˚ - 0 nm - Muenster Osnabrueck
DOM VOR - 2,400 ft / 732 m 51.70953˚ 7.58713˚ 25 nm 25 nm 188° / 188° -
O EDLW APT - 0 ft / 0 m 51.51911˚ 7.61445˚ 11 nm 37 nm 175° / 175° Dortmund-Wickede

Altitude Profile

Advertisement - Login to hide

EDDG

Details ICAO EDDG (FMO)
Name Muenster Osnabrueck
Region Germany - Civil
Timezone Europe/Berlin (UTC+2.0)
Stats Elevation 159 ft / 48 m (AMSL)
Location 52.134580° 7.684669°
Runways 1
Magnetic Variation 2.130° E

METAR

EDDG 252050Z 06003KT 030V120 CAVOK 20/14 Q1019 NOSIG

Decode

TAF

TAF EDDG 251700Z 2518/2618 06004KT CAVOK BECMG 2607/2609 05009KT

Decode

Departure Runways

ID Width Length Bearing (true) Bearing (mag) Surface Threshold Offset Overrun Length
07 148 ft / 45 m 7,303 ft / 2,226 m 70.93° 68.80° Asphalt 151 ft / 46 m 0 ft / 0 m
25 148 ft / 45 m 7,303 ft / 2,226 m 250.96° 248.83° Asphalt 292 ft / 89 m 0 ft / 0 m

EDLW

Details ICAO EDLW (DTM)
Name Dortmund-Wickede
Region Germany - Civil
Timezone Europe/Berlin (UTC+2.0)
Stats Elevation 425 ft / 130 m (AMSL)
Location 51.519107° 7.614447°
Runways 1
Magnetic Variation 2.118° E

METAR

EDLW 251950Z 07005KT CAVOK 20/16 Q1018

Decode

TAF

TAF EDLW 252050Z 2520/2618 CNL= TAF AMD EGGD 252054Z 2520/2618 05008KT 7000 SCT015 BECMG 2520/2523 4000 BR PROB30 TEMPO 2520/2524 BKN012 BECMG 2600/2603 1200 BKN002 PROB40 2603/2608 0200 FG BKN001 BECMG 2607/2610 9999 NSW SCT015 PROB30 TEMPO 2609/2618 4000 +SHRA BKN014 BKN045CB

Decode

Destination Runways

ID Width Length Bearing (true) Bearing (mag) Surface Threshold Offset Overrun Length
06 148 ft / 45 m 6,546 ft / 1,995 m 60.50° 58.38° Asphalt 984 ft / 300 m 197 ft / 60 m
24 148 ft / 45 m 6,546 ft / 1,995 m 240.52° 238.40° Asphalt 984 ft / 300 m 197 ft / 60 m

Approach Navaids

Runway Type Ident Frequency Range Bearing (true) Bearing (mag) Slope Elevation
06 Localiser IDWE 109.15 MHz 18 nm / 33 km 60.52° 58.41° - 425 ft / 130 m (AMSL)
06 Glidescope IDWE 109.15 MHz 10 nm / 19 km 60.51° 58.39° 3.00° 425 ft / 130 m (AMSL)
24 Localiser IDWW 110.30 MHz 18 nm / 33 km 240.49° 238.37° - 425 ft / 130 m (AMSL)
24 Glidescope IDWW 110.30 MHz 10 nm / 19 km 240.51° 238.39° 3.00° 425 ft / 130 m (AMSL)

Popular Alternatives